logo
Rechercher aéroport 
image banner adimage banner adimage banner ad
image banner ad

MRFL - Florencia

Situé à San Carlos, Costa Rica

ICAO - MRFL, IATA - FMG

Données fournies par Airmate  

Information générale

Coordonnées: N10°22'54" W84°29'21"
Élévation : 270 feet MSL.
 
Voir autres Aéroports à Guanacaste

Données opérationnelles

Special qualification required
Heure actuelle UTC:
Heure actuelle locale:
Météo à : MROC - Juan Santamaria Intl ( 53 km )
METAR: MROC 152100Z 11013KT 9999 FEW040 OVC180 26/18 A2998 NOSIG
TAF: MROC 151755Z 1518/1618 10008KT 9999 SCT040 TX30/1618Z TN21/1611Z TEMPO 1520/1524 25006KT RA
Voir NOTAMs / SUP AIP / TFR affectant cet aéroport [VIEW]
Fréquences de communication: [VIEW]

Pistes:

Identifiant RWYQFULongueur (ft)Largeur (ft)SurfaceLDA (ft)
0500UNK
2300UNK

Coordonnées de l'aéroport

Adresse: San Carlos Costa Rica

Vue satellite de MRFL